Latest METARs, TAFs and NOTAMs for ETSI


---------------------------------------------------------------------------
	(OBSERVATIONS)
ETSI 302120Z AUTO 18002KT 1600 // ////// 12/10 Q1015 ///=
ETSI 302020Z AUTO VRB01KT 6000 // ////// 13/11 Q1016 ///=
ETSI 301920Z AUTO 16002KT 7000 // ////// 15/12 Q1016 ///=
---------------------------------------------------------------------------
	(FC)
TAF ETSI 301015Z 3011/3020 25008KT 9999 NSW FEW100 SCT280 CANCEL
     1120=
---------------------------------------------------------------------------
	(TERMINAL AREA FORECAST)
ETSI 301015Z 3011/3020 25008KT 9999 NSW FEW100 SCT280 CANCEL
    1120=
---------------------------------------------------------------------------
	(NOTAMS)


ETSI M1141/16 AD ETSI FREQ 317.500 COMBINED FIXER, FREQ 257.800
    COMBINED TWR, FREQ 385.400 COMBINED RADAR FINAL, FREQ 344.000
    COMBINED RADAR SEARCH, FREQ 362.300 COMBINED ATC, FREQ 313.475
    INGO RADAR SFA, FREQ 282.100 INGO HOMER, FREQ 379.750 INGO
    RADAR FINAL, FREQ 275.375 INGO RADAR FINAL 2 OUT OF SERVICE.
    07 SEP 07:30 2016 UNTIL 10 OCT 07:00 2016. CREATED: 07 SEP
    07:42 2016

ETSI M1193/16 INGOLSTADT NDB IGL 345KHZ LTD, RATED COVERAGE 22NM.
    19 SEP 12:23 2016 UNTIL 23 DEC 12:00 2016. CREATED: 19 SEP
    12:49 2016

ETSI P4824/16 FREQ 123.300 COMBINED RADAR, FREQ 362.300 COMBINED
    ATC, FREQ 344.000 COMBINED RADAR SEARCH OUT OF SERVICE. 27
    JUL 10:47 2016 UNTIL 21 OCT 13:00 2016. CREATED: 27 JUL 10:59
    2016

ETSI P5781/16 TACAN APCH RWY07R SUSPENDED. 02 SEP 07:34 2016
    UNTIL 02 DEC 13:00 2016. CREATED: 02 SEP 07:35 2016

ETSI P5782/16 RWY25R CABLE NO.2 OUT OF SERVICE. 02 SEP 07:36
    2016 UNTIL 02 DEC 13:00 2016. CREATED: 02 SEP 07:40 2016

ETSI P5786/16 LIMITED RADAR COVERAGE BELOW 5000FT MSL. DETAILED
    INFORMATION BY INGO RADAR. 02 SEP 07:39 2016 UNTIL 02 DEC
    13:00 2016. CREATED: 02 SEP 07:46 2016

ETSI P5787/16 AD ETSI: NO SRA POSSIBLE. 02 SEP 07:41 2016 UNTIL
    02 DEC 13:00 2016. CREATED: 02 SEP 07:47 2016

ETSI P5788/16 AD ETSI: PAR RWY25R/07L OUT OF SERVICE. 02 SEP
    07:42 2016 UNTIL 02 DEC 13:00 2016. CREATED: 02 SEP 07:49
    2016

ETSI P5789/16 AD ETSI: PAR RWY25L/07R OUT OF SERVICE. 02 SEP
    07:44 2016 UNTIL 02 DEC 13:00 2016. CREATED: 02 SEP 07:50
    2016

ETSI P5832/16 RWY25L CABLE NO.1 AND NO.3 OUT OF SERVICE. 06 SEP
    06:16 2016 UNTIL 02 DEC 13:00 2016. CREATED: 06 SEP 06:30
    2016

ETSI P5958/16 ONLY SOUTHERN LANE WITHIN INGOLSTADT DROPPING AREA
    AVAILABLE DUE TO ERECTED OBJECTS AT MIDDLE AND NORTHERN LANE.
    12 SEP 12:14 2016 UNTIL 28 OCT 13:00 2016. CREATED: 12 SEP
    12:24 2016

ETSI P6203/16 PAPI 25R RIGHT SIDE NOT FLIGHT CHECKED. 23 SEP
    08:18 2016 UNTIL 30 NOV 12:00 2016. CREATED: 23 SEP 08:19
    2016

ETSI P6241/16 AERODROME CLOSED RADIO AND TELEKOM OUT OF SERVICE.
    03 OCT 05:00 2016 UNTIL 07 OCT 12:00 2016. CREATED: 26 SEP
    09:42 2016

ETSI P6247/16 AD MIL OPENING HOURS CHANGED TO: MON-THU 0700-1400
    FRI 0700-1100. 26 SEP 11:54 2016 UNTIL 28 OCT 11:00 2016.
    CREATED: 26 SEP 12:02 2016

ETSI P6397/16 ILS RWY25L OUT OF SERVICE. 03 OCT 05:00 2016 UNTIL
    07 OCT 04:00 2016. CREATED: 30 SEP 10:47 2016

---------------------------------------------------------------------------